sensor_id;sensor_type;location;lat;lon;timestamp;pressure;altitude;pressure_sealevel;temperature;humidity
9307;BME280;4691;47.612;7.610;2022-11-20T00:02:14;97945.78;;;7.32;100.00
9307;BME280;4691;47.612;7.610;2022-11-20T00:04:40;97945.78;;;7.32;100.00
9307;BME280;4691;47.612;7.610;2022-11-20T00:07:05;97935.13;;;7.32;100.00
9307;BME280;4691;47.612;7.610;2022-11-20T00:09:30;97918.44;;;6.96;100.00
9307;BME280;4691;47.612;7.610;2022-11-20T00:11:55;97973.69;;;6.69;100.00
9307;BME280;4691;47.612;7.610;2022-11-20T00:14:21;98086.34;;;6.66;100.00
9307;BME280;4691;47.612;7.610;2022-11-20T00:16:46;98154.75;;;6.63;100.00
9307;BME280;4691;47.612;7.610;2022-11-20T00:19:11;98208.56;;;6.53;100.00
9307;BME280;4691;47.612;7.610;2022-11-20T00:21:37;98279.44;;;6.53;100.00
9307;BME280;4691;47.612;7.610;2022-11-20T00:24:02;98355.81;;;6.49;100.00
9307;BME280;4691;47.612;7.610;2022-11-20T00:26:28;98426.81;;;6.47;100.00
9307;BME280;4691;47.612;7.610;2022-11-20T00:28:56;98471.84;;;6.49;100.00
9307;BME280;4691;47.612;7.610;2022-11-20T00:31:21;98522.47;;;6.33;100.00
9307;BME280;4691;47.612;7.610;2022-11-20T00:33:47;98592.66;;;6.29;100.00
9307;BME280;4691;47.612;7.610;2022-11-20T00:36:23;98670.84;;;6.25;100.00
9307;BME280;4691;47.612;7.610;2022-11-20T00:38:57;98776.88;;;6.71;100.00
9307;BME280;4691;47.612;7.610;2022-11-20T00:41:23;98819.75;;;6.79;100.00
9307;BME280;4691;47.612;7.610;2022-11-20T00:43:51;98791.53;;;6.91;100.00
9307;BME280;4691;47.612;7.610;2022-11-20T00:46:18;98771.56;;;6.42;100.00
9307;BME280;4691;47.612;7.610;2022-11-20T00:48:45;98820.97;;;6.30;100.00
9307;BME280;4691;47.612;7.610;2022-11-20T00:51:12;98864.94;;;6.79;100.00
9307;BME280;4691;47.612;7.610;2022-11-20T00:53:38;98869.09;;;6.83;100.00
9307;BME280;4691;47.612;7.610;2022-11-20T00:56:09;98835.03;;;6.75;100.00
9307;BME280;4691;47.612;7.610;2022-11-20T00:58:36;98799.81;;;6.86;100.00
9307;BME280;4691;47.612;7.610;2022-11-20T01:01:17;98783.28;;;6.95;100.00
9307;BME280;4691;47.612;7.610;2022-11-20T01:03:44;98738.25;;;7.07;100.00
9307;BME280;4691;47.612;7.610;2022-11-20T01:06:12;98669.25;;;7.18;100.00
9307;BME280;4691;47.612;7.610;2022-11-20T01:08:39;98639.38;;;7.14;100.00
9307;BME280;4691;47.612;7.610;2022-11-20T01:11:08;98633.81;;;7.05;100.00
9307;BME280;4691;47.612;7.610;2022-11-20T01:13:34;98612.31;;;7.08;100.00
9307;BME280;4691;47.612;7.610;2022-11-20T01:16:09;98555.75;;;7.18;100.00
9307;BME280;4691;47.612;7.610;2022-11-20T01:18:35;98527.69;;;7.14;100.00
9307;BME280;4691;47.612;7.610;2022-11-20T01:21:06;98476.19;;;7.15;100.00
9307;BME280;4691;47.612;7.610;2022-11-20T01:23:33;98392.81;;;6.78;100.00
9307;BME280;4691;47.612;7.610;2022-11-20T01:26:00;98407.69;;;7.06;100.00
9307;BME280;4691;47.612;7.610;2022-11-20T01:28:26;98382.41;;;6.62;100.00
9307;BME280;4691;47.612;7.610;2022-11-20T01:30:52;98425.97;;;6.60;100.00
9307;BME280;4691;47.612;7.610;2022-11-20T01:33:17;98454.25;;;6.61;100.00
9307;BME280;4691;47.612;7.610;2022-11-20T01:35:42;98428.09;;;6.67;100.00
9307;BME280;4691;47.612;7.610;2022-11-20T01:38:07;98424.91;;;6.62;100.00
9307;BME280;4691;47.612;7.610;2022-11-20T01:40:33;98412.47;;;6.63;100.00
9307;BME280;4691;47.612;7.610;2022-11-20T01:43:12;98408.78;;;6.52;100.00
9307;BME280;4691;47.612;7.610;2022-11-20T01:48:17;98492.50;;;6.31;100.00
9307;BME280;4691;47.612;7.610;2022-11-20T01:50:43;98544.13;;;6.81;100.00
9307;BME280;4691;47.612;7.610;2022-11-20T01:53:12;98514.22;;;6.90;100.00
9307;BME280;4691;47.612;7.610;2022-11-20T01:55:41;98521.88;;;6.82;100.00
9307;BME280;4691;47.612;7.610;2022-11-20T01:58:08;98529.44;;;6.88;100.00
9307;BME280;4691;47.612;7.610;2022-11-20T02:00:34;98536.78;;;6.85;100.00
9307;BME280;4691;47.612;7.610;2022-11-20T02:03:04;98529.44;;;6.48;100.00
9307;BME280;4691;47.612;7.610;2022-11-20T02:05:51;98584.88;;;6.40;100.00
9307;BME280;4691;47.612;7.610;2022-11-20T02:08:17;98639.91;;;6.38;100.00
9307;BME280;4691;47.612;7.610;2022-11-20T02:10:43;98659.25;;;6.40;100.00
9307;BME280;4691;47.612;7.610;2022-11-20T02:13:08;98661.09;;;6.94;100.00
9307;BME280;4691;47.612;7.610;2022-11-20T02:15:53;98548.72;;;6.65;100.00
9307;BME280;4691;47.612;7.610;2022-11-20T02:18:19;98548.16;;;6.87;100.00
9307;BME280;4691;47.612;7.610;2022-11-20T02:20:47;98486.59;;;7.06;100.00
9307;BME280;4691;47.612;7.610;2022-11-20T02:23:33;98422.56;;;7.09;100.00
9307;BME280;4691;47.612;7.610;2022-11-20T02:26:03;98337.59;;;7.20;100.00
9307;BME280;4691;47.612;7.610;2022-11-20T02:28:31;98272.19;;;7.17;100.00
9307;BME280;4691;47.612;7.610;2022-11-20T02:30:56;98224.94;;;7.21;100.00
9307;BME280;4691;47.612;7.610;2022-11-20T02:33:21;98189.31;;;7.24;100.00
9307;BME280;4691;47.612;7.610;2022-11-20T02:35:47;98140.34;;;7.26;100.00
9307;BME280;4691;47.612;7.610;2022-11-20T02:38:13;98095.16;;;7.26;100.00
9307;BME280;4691;47.612;7.610;2022-11-20T02:40:38;98039.56;;;7.34;100.00
9307;BME280;4691;47.612;7.610;2022-11-20T02:43:04;98008.38;;;7.25;100.00
9307;BME280;4691;47.612;7.610;2022-11-20T02:45:29;98009.34;;;7.35;100.00
9307;BME280;4691;47.612;7.610;2022-11-20T02:47:54;97988.69;;;7.28;100.00
9307;BME280;4691;47.612;7.610;2022-11-20T02:50:20;97990.97;;;6.74;100.00
9307;BME280;4691;47.612;7.610;2022-11-20T02:52:45;98010.75;;;6.70;100.00
9307;BME280;4691;47.612;7.610;2022-11-20T02:55:11;98031.06;;;7.07;100.00
9307;BME280;4691;47.612;7.610;2022-11-20T02:57:36;98008.38;;;7.25;100.00
9307;BME280;4691;47.612;7.610;2022-11-20T03:00:02;97967.75;;;7.23;100.00
9307;BME280;4691;47.612;7.610;2022-11-20T03:02:31;97943.28;;;6.84;100.00
9307;BME280;4691;47.612;7.610;2022-11-20T03:04:56;97965.38;;;6.73;100.00
9307;BME280;4691;47.612;7.610;2022-11-20T03:07:22;97993.22;;;6.68;100.00
9307;BME280;4691;47.612;7.610;2022-11-20T03:09:47;98017.88;;;6.70;100.00
9307;BME280;4691;47.612;7.610;2022-11-20T03:12:13;98061.22;;;6.70;100.00
9307;BME280;4691;47.612;7.610;2022-11-20T03:14:38;98095.19;;;7.02;100.00
9307;BME280;4691;47.612;7.610;2022-11-20T03:19:34;98013.16;;;7.09;100.00
9307;BME280;4691;47.612;7.610;2022-11-20T03:21:59;97996.78;;;6.80;100.00
9307;BME280;4691;47.612;7.610;2022-11-20T03:24:25;98018.59;;;6.72;100.00
9307;BME280;4691;47.612;7.610;2022-11-20T03:26:51;98051.47;;;6.71;100.00
9307;BME280;4691;47.612;7.610;2022-11-20T03:29:16;98078.22;;;6.68;100.00
9307;BME280;4691;47.612;7.610;2022-11-20T03:31:41;98107.34;;;6.69;100.00
9307;BME280;4691;47.612;7.610;2022-11-20T03:34:09;98129.34;;;6.95;100.00
9307;BME280;4691;47.612;7.610;2022-11-20T03:36:34;98127.78;;;6.69;100.00
9307;BME280;4691;47.612;7.610;2022-11-20T03:39:00;98152.63;;;6.68;100.00
9307;BME280;4691;47.612;7.610;2022-11-20T03:41:28;98195.59;;;6.62;100.00
9307;BME280;4691;47.612;7.610;2022-11-20T03:43:59;98218.34;;;6.66;100.00
9307;BME280;4691;47.612;7.610;2022-11-20T03:46:25;98257.97;;;6.69;100.00
9307;BME280;4691;47.612;7.610;2022-11-20T03:48:51;98322.47;;;6.71;100.00
9307;BME280;4691;47.612;7.610;2022-11-20T03:51:24;98383.78;;;6.68;100.00
9307;BME280;4691;47.612;7.610;2022-11-20T03:53:52;98379.00;;;6.73;100.00
9307;BME280;4691;47.612;7.610;2022-11-20T03:56:20;98414.72;;;6.69;100.00
9307;BME280;4691;47.612;7.610;2022-11-20T03:58:47;98445.63;;;6.70;100.00
9307;BME280;4691;47.612;7.610;2022-11-20T04:01:17;98474.88;;;6.70;100.00
9307;BME280;4691;47.612;7.610;2022-11-20T04:03:44;98513.63;;;6.60;100.00
9307;BME280;4691;47.612;7.610;2022-11-20T04:06:13;98554.31;;;6.47;100.00
9307;BME280;4691;47.612;7.610;2022-11-20T04:08:39;98645.75;;;6.43;100.00
9307;BME280;4691;47.612;7.610;2022-11-20T04:11:12;98718.44;;;6.42;100.00
9307;BME280;4691;47.612;7.610;2022-11-20T04:13:39;98783.50;;;6.35;100.00
9307;BME280;4691;47.612;7.610;2022-11-20T04:16:06;98836.63;;;6.35;100.00
9307;BME280;4691;47.612;7.610;2022-11-20T04:18:31;98887.88;;;6.37;100.00
9307;BME280;4691;47.612;7.610;2022-11-20T04:20:58;98919.53;;;6.40;100.00
9307;BME280;4691;47.612;7.610;2022-11-20T04:23:24;99037.47;;;6.38;100.00
9307;BME280;4691;47.612;7.610;2022-11-20T04:25:49;99092.38;;;6.37;100.00
9307;BME280;4691;47.612;7.610;2022-11-20T04:28:14;99138.88;;;6.28;100.00
9307;BME280;4691;47.612;7.610;2022-11-20T04:30:40;99179.50;;;6.30;100.00
9307;BME280;4691;47.612;7.610;2022-11-20T04:33:05;99224.25;;;6.70;100.00
9307;BME280;4691;47.612;7.610;2022-11-20T04:35:34;99191.59;;;6.68;100.00
9307;BME280;4691;47.612;7.610;2022-11-20T04:37:59;99152.44;;;6.71;100.00
9307;BME280;4691;47.612;7.610;2022-11-20T04:40:24;99091.03;;;6.76;100.00
9307;BME280;4691;47.612;7.610;2022-11-20T04:42:50;99052.88;;;6.77;100.00
9307;BME280;4691;47.612;7.610;2022-11-20T04:45:15;99004.44;;;6.72;100.00
9307;BME280;4691;47.612;7.610;2022-11-20T04:47:40;98938.31;;;6.82;100.00
9307;BME280;4691;47.612;7.610;2022-11-20T04:50:06;98879.94;;;6.80;100.00
9307;BME280;4691;47.612;7.610;2022-11-20T04:52:31;98821.09;;;6.72;100.00
9307;BME280;4691;47.612;7.610;2022-11-20T04:54:56;98781.63;;;6.66;100.00
9307;BME280;4691;47.612;7.610;2022-11-20T04:57:22;98703.03;;;6.76;100.00
9307;BME280;4691;47.612;7.610;2022-11-20T04:59:47;98678.97;;;6.78;100.00
9307;BME280;4691;47.612;7.610;2022-11-20T05:02:12;98612.84;;;6.73;100.00
9307;BME280;4691;47.612;7.610;2022-11-20T05:04:38;98523.16;;;6.76;100.00
9307;BME280;4691;47.612;7.610;2022-11-20T05:07:03;98480.41;;;6.67;100.00
9307;BME280;4691;47.612;7.610;2022-11-20T05:09:29;98462.56;;;6.69;100.00
9307;BME280;4691;47.612;7.610;2022-11-20T05:11:55;98438.72;;;6.67;100.00
9307;BME280;4691;47.612;7.610;2022-11-20T05:14:20;98421.84;;;6.68;100.00
9307;BME280;4691;47.612;7.610;2022-11-20T05:16:45;98384.84;;;6.78;100.00
9307;BME280;4691;47.612;7.610;2022-11-20T05:19:11;98352.00;;;6.79;100.00
9307;BME280;4691;47.612;7.610;2022-11-20T05:21:36;98290.13;;;6.90;100.00
9307;BME280;4691;47.612;7.610;2022-11-20T05:24:01;98280.34;;;6.90;100.00
9307;BME280;4691;47.612;7.610;2022-11-20T05:26:26;98268.44;;;6.83;100.00
9307;BME280;4691;47.612;7.610;2022-11-20T05:28:52;98239.09;;;6.85;100.00
9307;BME280;4691;47.612;7.610;2022-11-20T05:31:20;98215.59;;;6.91;100.00
9307;BME280;4691;47.612;7.610;2022-11-20T05:33:45;98209.53;;;6.89;100.00
9307;BME280;4691;47.612;7.610;2022-11-20T05:36:12;98152.53;;;6.93;100.00
9307;BME280;4691;47.612;7.610;2022-11-20T05:38:38;98139.75;;;6.98;100.00
9307;BME280;4691;47.612;7.610;2022-11-20T05:41:18;98102.03;;;6.93;100.00
9307;BME280;4691;47.612;7.610;2022-11-20T05:43:44;98095.53;;;6.97;100.00
9307;BME280;4691;47.612;7.610;2022-11-20T05:46:12;98081.28;;;6.98;100.00
9307;BME280;4691;47.612;7.610;2022-11-20T05:48:39;98070.56;;;7.11;100.00
9307;BME280;4691;47.612;7.610;2022-11-20T05:51:07;98061.47;;;7.03;100.00
9307;BME280;4691;47.612;7.610;2022-11-20T05:53:34;98046.50;;;7.02;100.00
9307;BME280;4691;47.612;7.610;2022-11-20T05:56:01;98007.84;;;7.09;100.00
9307;BME280;4691;47.612;7.610;2022-11-20T05:58:27;97991.28;;;7.05;100.00
9307;BME280;4691;47.612;7.610;2022-11-20T06:00:52;97986.06;;;7.04;100.00
9307;BME280;4691;47.612;7.610;2022-11-20T06:03:18;97961.94;;;7.07;100.00
9307;BME280;4691;47.612;7.610;2022-11-20T06:05:43;97955.88;;;7.05;100.00
9307;BME280;4691;47.612;7.610;2022-11-20T06:08:09;97963.63;;;6.96;100.00
9307;BME280;4691;47.612;7.610;2022-11-20T06:10:34;97938.47;;;7.01;100.00
9307;BME280;4691;47.612;7.610;2022-11-20T06:12:59;97933.50;;;6.96;100.00
9307;BME280;4691;47.612;7.610;2022-11-20T06:15:25;97932.66;;;6.95;100.00
9307;BME280;4691;47.612;7.610;2022-11-20T06:17:54;97911.41;;;6.95;100.00
9307;BME280;4691;47.612;7.610;2022-11-20T06:20:20;97891.84;;;6.96;100.00
9307;BME280;4691;47.612;7.610;2022-11-20T06:22:46;97887.13;;;7.00;100.00
9307;BME280;4691;47.612;7.610;2022-11-20T06:25:11;97865.13;;;6.98;100.00
9307;BME280;4691;47.612;7.610;2022-11-20T06:27:36;97852.47;;;7.02;100.00
9307;BME280;4691;47.612;7.610;2022-11-20T06:30:03;97829.25;;;6.59;100.00
9307;BME280;4691;47.612;7.610;2022-11-20T06:32:28;97855.78;;;6.47;100.00
9307;BME280;4691;47.612;7.610;2022-11-20T06:34:53;97882.94;;;6.51;100.00
9307;BME280;4691;47.612;7.610;2022-11-20T06:37:19;97894.91;;;6.57;100.00
9307;BME280;4691;47.612;7.610;2022-11-20T06:39:44;97918.06;;;6.54;100.00
9307;BME280;4691;47.612;7.610;2022-11-20T06:42:09;97924.63;;;6.62;100.00
9307;BME280;4691;47.612;7.610;2022-11-20T06:44:35;97899.28;;;6.69;100.00
9307;BME280;4691;47.612;7.610;2022-11-20T06:47:00;97883.63;;;7.11;100.00
9307;BME280;4691;47.612;7.610;2022-11-20T06:49:25;97860.94;;;7.07;100.00
9307;BME280;4691;47.612;7.610;2022-11-20T06:51:51;97851.97;;;7.08;100.00
9307;BME280;4691;47.612;7.610;2022-11-20T06:54:16;97837.22;;;7.04;100.00
9307;BME280;4691;47.612;7.610;2022-11-20T06:56:41;97826.84;;;7.12;100.00
9307;BME280;4691;47.612;7.610;2022-11-20T06:59:07;97807.63;;;7.19;100.00
9307;BME280;4691;47.612;7.610;2022-11-20T07:01:32;97792.41;;;7.10;100.00
9307;BME280;4691;47.612;7.610;2022-11-20T07:03:58;97807.75;;;7.07;100.00
9307;BME280;4691;47.612;7.610;2022-11-20T07:06:23;97793.25;;;7.11;100.00
9307;BME280;4691;47.612;7.610;2022-11-20T07:08:50;97795.66;;;7.14;100.00
9307;BME280;4691;47.612;7.610;2022-11-20T07:11:17;97798.31;;;7.14;100.00
9307;BME280;4691;47.612;7.610;2022-11-20T07:13:42;97794.44;;;7.18;100.00
9307;BME280;4691;47.612;7.610;2022-11-20T07:16:08;97791.78;;;7.18;100.00
9307;BME280;4691;47.612;7.610;2022-11-20T07:18:34;97783.31;;;7.24;100.00
9307;BME280;4691;47.612;7.610;2022-11-20T07:21:04;97778.47;;;7.29;100.00
9307;BME280;4691;47.612;7.610;2022-11-20T07:23:30;97778.81;;;7.36;100.00
9307;BME280;4691;47.612;7.610;2022-11-20T07:25:56;97783.63;;;7.42;100.00
9307;BME280;4691;47.612;7.610;2022-11-20T07:28:21;97779.66;;;7.48;100.00
9307;BME280;4691;47.612;7.610;2022-11-20T07:30:51;97777.94;;;7.47;100.00
9307;BME280;4691;47.612;7.610;2022-11-20T07:33:16;97784.72;;;7.51;100.00
9307;BME280;4691;47.612;7.610;2022-11-20T07:35:42;97782.53;;;7.45;100.00
9307;BME280;4691;47.612;7.610;2022-11-20T07:38:07;97786.38;;;7.52;100.00
9307;BME280;4691;47.612;7.610;2022-11-20T07:40:33;97781.06;;;7.52;100.00
9307;BME280;4691;47.612;7.610;2022-11-20T07:42:58;97752.28;;;7.57;100.00
9307;BME280;4691;47.612;7.610;2022-11-20T07:45:24;97756.75;;;7.56;100.00
9307;BME280;4691;47.612;7.610;2022-11-20T07:47:50;97759.75;;;7.63;100.00
9307;BME280;4691;47.612;7.610;2022-11-20T07:50:16;97764.63;;;7.58;100.00
9307;BME280;4691;47.612;7.610;2022-11-20T07:52:41;97768.22;;;7.57;100.00
9307;BME280;4691;47.612;7.610;2022-11-20T07:55:07;97770.44;;;7.52;100.00
9307;BME280;4691;47.612;7.610;2022-11-20T07:57:33;97780.94;;;7.53;100.00
9307;BME280;4691;47.612;7.610;2022-11-20T07:59:58;97774.75;;;7.64;100.00
9307;BME280;4691;47.612;7.610;2022-11-20T08:02:24;97771.72;;;7.69;100.00
9307;BME280;4691;47.612;7.610;2022-11-20T08:04:49;97769.31;;;7.66;100.00
9307;BME280;4691;47.612;7.610;2022-11-20T08:07:14;97775.34;;;7.13;100.00
9307;BME280;4691;47.612;7.610;2022-11-20T08:09:40;97784.53;;;7.09;100.00
9307;BME280;4691;47.612;7.610;2022-11-20T08:12:05;97789.16;;;7.07;100.00
9307;BME280;4691;47.612;7.610;2022-11-20T08:14:49;97787.94;;;7.11;100.00
9307;BME280;4691;47.612;7.610;2022-11-20T08:17:14;97792.16;;;7.13;100.00
9307;BME280;4691;47.612;7.610;2022-11-20T08:19:40;97798.19;;;7.15;100.00
9307;BME280;4691;47.612;7.610;2022-11-20T08:22:05;97799.03;;;7.16;100.00
9307;BME280;4691;47.612;7.610;2022-11-20T08:24:30;97813.53;;;7.23;100.00
9307;BME280;4691;47.612;7.610;2022-11-20T08:26:58;97818.81;;;7.34;100.00
9307;BME280;4691;47.612;7.610;2022-11-20T08:29:25;97811.84;;;7.22;100.00
9307;BME280;4691;47.612;7.610;2022-11-20T08:31:50;97808.44;;;7.31;100.00
9307;BME280;4691;47.612;7.610;2022-11-20T08:34:16;97819.91;;;7.32;100.00
9307;BME280;4691;47.612;7.610;2022-11-20T08:36:41;97813.50;;;7.34;100.00
9307;BME280;4691;47.612;7.610;2022-11-20T08:39:06;97828.38;;;7.80;100.00
9307;BME280;4691;47.612;7.610;2022-11-20T08:41:32;97800.81;;;7.81;100.00
9307;BME280;4691;47.612;7.610;2022-11-20T08:44:07;97791.31;;;7.89;100.00
9307;BME280;4691;47.612;7.610;2022-11-20T08:46:35;97796.88;;;7.97;100.00
9307;BME280;4691;47.612;7.610;2022-11-20T08:49:03;97794.09;;;7.66;100.00
9307;BME280;4691;47.612;7.610;2022-11-20T08:51:29;97801.00;;;7.57;100.00
9307;BME280;4691;47.612;7.610;2022-11-20T08:53:54;97797.38;;;7.91;100.00
9307;BME280;4691;47.612;7.610;2022-11-20T08:56:20;97794.69;;;8.02;100.00
9307;BME280;4691;47.612;7.610;2022-11-20T08:58:45;97797.66;;;8.08;100.00
9307;BME280;4691;47.612;7.610;2022-11-20T09:01:10;97792.22;;;8.10;100.00
9307;BME280;4691;47.612;7.610;2022-11-20T09:03:36;97802.94;;;7.88;100.00
9307;BME280;4691;47.612;7.610;2022-11-20T09:06:06;97806.88;;;7.72;100.00
9307;BME280;4691;47.612;7.610;2022-11-20T09:08:32;97814.13;;;7.81;100.00
9307;BME280;4691;47.612;7.610;2022-11-20T09:10:58;97807.25;;;8.00;100.00
9307;BME280;4691;47.612;7.610;2022-11-20T09:13:26;97814.00;;;8.04;100.00
9307;BME280;4691;47.612;7.610;2022-11-20T09:16:00;97816.09;;;8.00;100.00
9307;BME280;4691;47.612;7.610;2022-11-20T09:18:27;97814.00;;;8.04;100.00
9307;BME280;4691;47.612;7.610;2022-11-20T09:20:59;97817.53;;;8.25;100.00
9307;BME280;4691;47.612;7.610;2022-11-20T09:23:26;97829.13;;;8.36;100.00
9307;BME280;4691;47.612;7.610;2022-11-20T09:25:51;97844.94;;;8.37;100.00
9307;BME280;4691;47.612;7.610;2022-11-20T09:28:18;97841.22;;;8.07;100.00
9307;BME280;4691;47.612;7.610;2022-11-20T09:30:44;97838.00;;;7.93;100.00
9307;BME280;4691;47.612;7.610;2022-11-20T09:33:09;97850.59;;;7.91;100.00
9307;BME280;4691;47.612;7.610;2022-11-20T09:35:34;97861.75;;;7.84;100.00
9307;BME280;4691;47.612;7.610;2022-11-20T09:38:07;97856.50;;;8.26;100.00
9307;BME280;4691;47.612;7.610;2022-11-20T09:40:34;97848.75;;;8.02;100.00
9307;BME280;4691;47.612;7.610;2022-11-20T09:43:27;97853.28;;;8.12;100.00
9307;BME280;4691;47.612;7.610;2022-11-20T09:46:29;97836.22;;;8.14;100.00
9307;BME280;4691;47.612;7.610;2022-11-20T09:49:24;97837.88;;;8.26;100.00
9307;BME280;4691;47.612;7.610;2022-11-20T09:54:56;97839.50;;;8.18;100.00
9307;BME280;4691;47.612;7.610;2022-11-20T09:57:26;97835.72;;;8.20;100.00
9307;BME280;4691;47.612;7.610;2022-11-20T09:59:57;97841.50;;;8.25;100.00
9307;BME280;4691;47.612;7.610;2022-11-20T10:05:18;97845.13;;;8.57;100.00
9307;BME280;4691;47.612;7.610;2022-11-20T10:08:16;97845.91;;;8.68;100.00
9307;BME280;4691;47.612;7.610;2022-11-20T10:10:51;97846.75;;;8.69;100.00
9307;BME280;4691;47.612;7.610;2022-11-20T10:21:57;97842.59;;;8.86;100.00
9307;BME280;4691;47.612;7.610;2022-11-20T10:30:01;97846.22;;;8.75;100.00
9307;BME280;4691;47.612;7.610;2022-11-20T10:32:34;97843.44;;;9.07;100.00
9307;BME280;4691;47.612;7.610;2022-11-20T10:35:06;97841.56;;;8.98;100.00
9307;BME280;4691;47.612;7.610;2022-11-20T10:37:37;97838.75;;;9.00;100.00
9307;BME280;4691;47.612;7.610;2022-11-20T10:40:18;97849.31;;;8.80;100.00
9307;BME280;4691;47.612;7.610;2022-11-20T10:42:55;97850.81;;;8.94;100.00
9307;BME280;4691;47.612;7.610;2022-11-20T10:45:32;97838.75;;;9.00;100.00
9307;BME280;4691;47.612;7.610;2022-11-20T10:48:34;97832.81;;;8.86;100.00
9307;BME280;4691;47.612;7.610;2022-11-20T10:54:17;97822.88;;;8.98;100.00
9307;BME280;4691;47.612;7.610;2022-11-20T10:56:53;97824.72;;;8.98;100.00
9307;BME280;4691;47.612;7.610;2022-11-20T11:00:00;97818.16;;;9.11;100.00
9307;BME280;4691;47.612;7.610;2022-11-20T11:05:05;97817.91;;;8.53;100.00
9307;BME280;4691;47.612;7.610;2022-11-20T11:07:37;97806.78;;;8.48;100.00
9307;BME280;4691;47.612;7.610;2022-11-20T11:10:14;97805.53;;;8.52;100.00
9307;BME280;4691;47.612;7.610;2022-11-20T11:12:44;97798.59;;;8.40;100.00
9307;BME280;4691;47.612;7.610;2022-11-20T11:15:13;97803.47;;;8.56;100.00
9307;BME280;4691;47.612;7.610;2022-11-20T11:17:46;97791.66;;;8.48;100.00
9307;BME280;4691;47.612;7.610;2022-11-20T11:20:17;97786.22;;;8.60;100.00
9307;BME280;4691;47.612;7.610;2022-11-20T11:22:51;97764.94;;;9.00;100.00
9307;BME280;4691;47.612;7.610;2022-11-20T11:25:26;97769.81;;;9.45;100.00
9307;BME280;4691;47.612;7.610;2022-11-20T11:27:54;97764.94;;;10.75;100.00
9307;BME280;4691;47.612;7.610;2022-11-20T11:30:22;97873.41;;;13.32;100.00
9307;BME280;4691;47.612;7.610;2022-11-20T11:32:48;97984.56;;;13.39;100.00
9307;BME280;4691;47.612;7.610;2022-11-20T11:35:23;98039.84;;;15.52;100.00
9307;BME280;4691;47.612;7.610;2022-11-20T11:37:49;98154.00;;;13.36;100.00
9307;BME280;4691;47.612;7.610;2022-11-20T11:40:17;98095.22;;;13.15;100.00
9307;BME280;4691;47.612;7.610;2022-11-20T11:42:48;98113.50;;;12.66;100.00
9307;BME280;4691;47.612;7.610;2022-11-20T11:45:16;98119.78;;;14.60;100.00
9307;BME280;4691;47.612;7.610;2022-11-20T11:47:46;98182.03;;;13.05;100.00
9307;BME280;4691;47.612;7.610;2022-11-20T11:50:24;98209.28;;;12.83;100.00
9307;BME280;4691;47.612;7.610;2022-11-20T11:53:09;98221.63;;;12.29;100.00
9307;BME280;4691;47.612;7.610;2022-11-20T11:55:56;98196.97;;;12.90;100.00
9307;BME280;4691;47.612;7.610;2022-11-20T12:07:01;98295.91;;;16.75;100.00
9307;BME280;4691;47.612;7.610;2022-11-20T12:09:35;98343.75;;;15.83;100.00
9307;BME280;4691;47.612;7.610;2022-11-20T12:12:24;98370.72;;;15.91;100.00
9307;BME280;4691;47.612;7.610;2022-11-20T12:14:54;98404.03;;;15.74;100.00
9307;BME280;4691;47.612;7.610;2022-11-20T12:17:21;98356.53;;;14.60;100.00
9307;BME280;4691;47.612;7.610;2022-11-20T12:19:46;98251.41;;;10.36;100.00
9307;BME280;4691;47.612;7.610;2022-11-20T12:25:02;98129.59;;;12.01;100.00
9307;BME280;4691;47.612;7.610;2022-11-20T12:30:13;98116.25;;;11.13;100.00
9307;BME280;4691;47.612;7.610;2022-11-20T12:35:49;98091.72;;;10.69;100.00
9307;BME280;4691;47.612;7.610;2022-11-20T12:47:50;98113.81;;;13.62;100.00
9307;BME280;4691;47.612;7.610;2022-11-20T12:59:02;98062.41;;;9.77;100.00
9307;BME280;4691;47.612;7.610;2022-11-20T13:01:38;98015.59;;;9.73;100.00
9307;BME280;4691;47.612;7.610;2022-11-20T13:04:24;97980.00;;;9.63;100.00
9307;BME280;4691;47.612;7.610;2022-11-20T13:06:56;97961.69;;;9.48;100.00
9307;BME280;4691;47.612;7.610;2022-11-20T13:09:22;97947.09;;;9.52;100.00
9307;BME280;4691;47.612;7.610;2022-11-20T13:14:40;97929.38;;;9.92;100.00
9307;BME280;4691;47.612;7.610;2022-11-20T13:19:36;97944.50;;;10.32;100.00
9307;BME280;4691;47.612;7.610;2022-11-20T13:22:01;97950.13;;;10.29;100.00
9307;BME280;4691;47.612;7.610;2022-11-20T13:24:29;97954.47;;;10.30;100.00
9307;BME280;4691;47.612;7.610;2022-11-20T13:29:33;97938.03;;;10.34;100.00
9307;BME280;4691;47.612;7.610;2022-11-20T13:32:13;97940.94;;;10.12;100.00
9307;BME280;4691;47.612;7.610;2022-11-20T13:34:39;97929.00;;;10.25;100.00
9307;BME280;4691;47.612;7.610;2022-11-20T13:37:05;97985.69;;;12.56;100.00
9307;BME280;4691;47.612;7.610;2022-11-20T13:39:35;98078.41;;;13.48;100.00
9307;BME280;4691;47.612;7.610;2022-11-20T13:42:23;98161.53;;;13.32;100.00
9307;BME280;4691;47.612;7.610;2022-11-20T13:44:54;98155.63;;;15.19;100.00
9307;BME280;4691;47.612;7.610;2022-11-20T13:47:23;98197.47;;;14.37;100.00
9307;BME280;4691;47.612;7.610;2022-11-20T13:49:49;98183.69;;;15.84;100.00
9307;BME280;4691;47.612;7.610;2022-11-20T13:54:54;98203.00;;;15.63;100.00
9307;BME280;4691;47.612;7.610;2022-11-20T14:02:37;98059.06;;;11.24;100.00
9307;BME280;4691;47.612;7.610;2022-11-20T14:05:04;98021.47;;;10.86;100.00
9307;BME280;4691;47.612;7.610;2022-11-20T14:07:37;97992.34;;;10.44;100.00
9307;BME280;4691;47.612;7.610;2022-11-20T14:10:04;97961.91;;;10.26;100.00
9307;BME280;4691;47.612;7.610;2022-11-20T14:12:32;97933.47;;;10.06;100.00
9307;BME280;4691;47.612;7.610;2022-11-20T14:14:58;97888.75;;;9.88;100.00
9307;BME280;4691;47.612;7.610;2022-11-20T14:17:31;97884.66;;;9.74;100.00
9307;BME280;4691;47.612;7.610;2022-11-20T14:20:00;97892.50;;;9.66;100.00
9307;BME280;4691;47.612;7.610;2022-11-20T14:22:27;97880.44;;;9.72;100.00
9307;BME280;4691;47.612;7.610;2022-11-20T14:27:51;97890.94;;;9.64;100.00
9307;BME280;4691;47.612;7.610;2022-11-20T14:30:20;97884.34;;;9.68;100.00
9307;BME280;4691;47.612;7.610;2022-11-20T14:32:47;97876.53;;;9.95;100.00
9307;BME280;4691;47.612;7.610;2022-11-20T14:37:47;97927.22;;;11.96;100.00
9307;BME280;4691;47.612;7.610;2022-11-20T14:42:52;97908.91;;;10.80;100.00
9307;BME280;4691;47.612;7.610;2022-11-20T14:45:18;97896.72;;;10.38;100.00
9307;BME280;4691;47.612;7.610;2022-11-20T14:47:44;97878.41;;;10.34;100.00
9307;BME280;4691;47.612;7.610;2022-11-20T14:50:18;97873.75;;;10.26;100.00
9307;BME280;4691;47.612;7.610;2022-11-20T14:52:52;97856.16;;;10.23;100.00
9307;BME280;4691;47.612;7.610;2022-11-20T14:55:26;97863.88;;;9.97;100.00
9307;BME280;4691;47.612;7.610;2022-11-20T14:57:57;97835.34;;;9.69;100.00